Data for 08/01/2018

Time Sea-Level Adjusted Pressure Absolute Pressure Temperature Relative Humidity Dew Point   
(mb) (inHg) (mb) (inHg) (C) (F) (%) (C) (F)
00:05 1023 30.21 852 25.16 20.3 68.5 40 6.4 43.6
00:10 1023 30.21 852 25.16 20.3 68.5 39 5.9 42.6
00:15 1023 30.21 852 25.16 20.5 68.9 37 5.5 41.8
00:20 1023 30.21 852 25.16 20.7 69.3 36 5.2 41.3
00:25 1023 30.21 852 25.16 21 69.9 34 4.6 40.4
00:30 1023 30.21 852 25.16 21.3 70.4 33 4.6 40.3
00:35 1023 30.21 852 25.16 21.5 70.7 33 4.7 40.5
00:40 1023 30.21 852 25.16 21.3 70.4 34 4.9 40.8
00:45 1023 30.21 852 25.16 21.1 70 34 4.9 40.8
00:50 1023 30.21 852 25.16 21 69.7 37 5.9 42.7
00:55 1023 30.21 852 25.16 20.8 69.4 36 5.4 41.7
01:00 1023 30.21 852 25.16 20.2 68.4 36 4.9 40.8
01:05 1023 30.21 852 25.16 20.3 68.5 37 5.4 41.8
01:10 1023 30.21 852 25.16 19.9 67.7 38 5.3 41.6
01:15 1022 30.18 852 25.16 19.8 67.6 39 5.4 41.8
01:20 1022 30.18 852 25.16 19.7 67.4 38 5.1 41.2
01:25 1022 30.18 852 25.16 19.8 67.6 37 4.9 40.9
01:30 1022 30.18 852 25.16 19.8 67.6 38 5.4 41.7
01:35 1022 30.18 852 25.16 19.5 67 39 5.5 41.8
01:40 1022 30.18 852 25.16 19.1 66.4 40 5.2 41.4
01:45 1022 30.18 852 25.16 19 66.3 40 5.3 41.6
01:50 1022 30.18 852 25.16 18.8 65.9 41 5.5 41.9
01:55 1022 30.18 851 25.13 18.8 65.8 40 5.1 41.2
02:00 1022 30.18 851 25.13 18.9 66 39 5 40.9
02:05 1022 30.18 851 25.13 19.1 66.3 39 5 41
02:10 1022 30.18 851 25.13 19.1 66.3 40 5.1 41.3
02:15 1022 30.18 851 25.13 19.1 66.3 40 5.2 41.3
02:20 1022 30.18 851 25.13 18.9 66.1 39 5 40.9
02:25 1022 30.18 851 25.13 18.8 65.9 40 5 41
02:30 1022 30.18 851 25.13 18.7 65.7 40 5.1 41.3
02:35 1022 30.18 851 25.13 18.5 65.3 41 5.2 41.4
02:40 1022 30.18 851 25.13 18.5 65.2 41 5 41
02:45 1022 30.18 851 25.13 18.7 65.6 39 4.7 40.5
02:50 1022 30.18 851 25.13 19 66.2 38 4.5 40
02:55 1022 30.18 851 25.13 19.2 66.5 38 4.6 40.2
03:00 1022 30.18 851 25.13 19.1 66.4 38 4.4 40
03:05 1022 30.18 851 25.13 19 66.1 38 4.7 40.4
03:10 1022 30.18 851 25.13 18.7 65.7 41 5.2 41.3
03:15 1022 30.18 851 25.13 18.2 64.8 42 5.1 41.1
03:20 1022 30.18 851 25.13 17.9 64.3 43 5.3 41.5
03:25 1022 30.18 851 25.13 17.7 63.9 43 5 41
03:30 1022 30.18 851 25.13 17.7 63.9 41 4.6 40.2
03:35 1022 30.18 851 25.13 17.9 64.2 42 4.9 40.8
03:40 1022 30.18 851 25.13 17.9 64.2 41 4.5 40.1
03:45 1022 30.18 851 25.13 18 64.3 41 4.8 40.6
03:50 1022 30.18 851 25.13 17.8 64 42 4.7 40.4
03:55 1022 30.18 851 25.13 17.6 63.6 43 5 41
04:00 1022 30.18 851 25.13 17.3 63.1 44 5.1 41.1
04:05 1022 30.18 851 25.13 17.1 62.8 45 5.1 41.2
04:10 1022 30.18 851 25.13 17.1 62.7 44 4.9 40.8
04:15 1022 30.18 851 25.13 17.3 63.1 43 4.6 40.4
04:20 1022 30.18 851 25.13 17.6 63.8 41 4.5 40
04:25 1022 30.18 851 25.13 17.9 64.1 41 4.5 40.2
04:30 1022 30.18 851 25.13 17.7 63.9 41 4.6 40.2
04:35 1022 30.18 851 25.13 17.7 63.8 42 4.6 40.3
04:40 1022 30.18 851 25.13 17.6 63.7 41 4.4 40
04:45 1022 30.18 851 25.13 17.6 63.6 42 4.6 40.3
04:50 1022 30.18 851 25.13 17.5 63.4 42 4.5 40.2
04:55 1022 30.18 851 25.13 17.5 63.5 42 4.6 40.2
05:00 1022 30.18 851 25.13 17.6 63.7 41 4.4 39.9
05:05 1022 30.18 851 25.13 17.7 63.8 41 4.5 40.1
05:10 1022 30.18 851 25.13 17.7 63.9 41 4.5 40
05:15 1022 30.18 851 25.13 17.7 63.9 41 4.4 39.9
05:20 1022 30.18 851 25.13 17.6 63.7 42 4.6 40.4
05:25 1022 30.18 851 25.13 17.4 63.3 43 4.8 40.7
05:30 1022 30.18 851 25.13 17.1 62.8 44 4.9 40.9
05:35 1022 30.18 851 25.13 16.8 62.3 44 4.8 40.6
05:40 1022 30.18 851 25.13 16.8 62.3 44 4.7 40.4
05:45 1022 30.18 851 25.13 16.7 62.1 45 4.7 40.5
05:50 1022 30.18 851 25.13 16.6 62 45 4.8 40.7
05:55 1022 30.18 851 25.13 16.5 61.8 45 4.6 40.2
06:00 1022 30.18 851 25.13 16.7 62.1 45 4.9 40.7
06:05 1022 30.18 851 25.13 16.5 61.8 46 4.9 40.8
06:10 1022 30.18 851 25.13 16.3 61.3 46 4.9 40.8
06:15 1022 30.18 851 25.13 16.3 61.3 46 4.8 40.6
06:20 1022 30.18 851 25.13 16.2 61.2 47 4.8 40.7
06:25 1022 30.18 851 25.13 16.2 61.2 46 4.7 40.4
06:30 1022 30.18 851 25.13 16.2 61.2 46 4.8 40.6
06:35 1022 30.18 851 25.13 16.1 60.9 47 5 40.9
06:40 1022 30.18 851 25.13 15.8 60.4 48 4.9 40.8
06:45 1022 30.18 851 25.13 15.7 60.3 46 4.3 39.7
06:50 1022 30.18 851 25.13 16.2 61.2 45 4.4 40
06:55 1022 30.18 851 25.13 16.5 61.8 43 4 39.3
07:00 1022 30.18 851 25.13 16.8 62.3 43 4.3 39.7
07:05 1022 30.18 851 25.13 17 62.5 43 4.4 39.9
07:10 1022 30.18 851 25.13 17 62.6 43 4.5 40.2
07:15 1022 30.18 851 25.13 16.8 62.2 45 4.9 40.8
07:20 1022 30.18 851 25.13 16.4 61.4 47 5.1 41.1
07:25 1022 30.18 851 25.13 16.3 61.4 46 4.9 40.9
07:30 1021 30.15 851 25.13 16.7 62.1 45 4.8 40.6
07:35 1021 30.15 851 25.13 17 62.7 43 4.6 40.2
07:40 1021 30.15 851 25.13 17.3 63.2 44 5.1 41.2
07:45 1021 30.15 851 25.13 17.3 63.1 45 5.2 41.4
07:50 1022 30.18 851 25.13 17.4 63.3 43 5 40.9
07:55 1022 30.18 851 25.13 17.8 64.1 45 5.8 42.5
08:00 1022 30.18 851 25.13 18.1 64.6 42 5.3 41.5
08:05 1021 30.15 851 25.13 18.3 64.9 41 5 41
08:10 1021 30.15 851 25.13 18.5 65.3 42 5.6 42.1
08:15 1021 30.15 851 25.13 18.8 65.8 43 6.1 43
08:20 1021 30.15 851 25.13 19.1 66.4 41 5.6 42
08:25 1021 30.15 851 25.13 19.2 66.5 42 6.3 43.3
08:30 1021 30.15 851 25.13 19.5 67.1 42 6.3 43.4
08:35 1021 30.15 851 25.13 19.9 67.8 41 6.4 43.6
08:40 1021 30.15 851 25.13 20.3 68.5 41 6.7 44.1
08:45 1021 30.15 851 25.13 20.9 69.5 39 6.6 43.8
08:50 1021 30.15 851 25.13 21.3 70.4 36 6 42.8
08:55 1021 30.15 851 25.13 21.8 71.2 35 5.8 42.4
09:00 1021 30.15 851 25.13 22 71.7 35 6.1 43.1
09:05 1021 30.15 851 25.13 22.4 72.3 37 7 44.6
09:10 1021 30.15 851 25.13 22.8 73 33 5.8 42.5
09:15 1021 30.15 851 25.13 22.6 72.7 33 5.7 42.3
09:20 1021 30.15 851 25.13 22.7 72.8 34 6.1 42.9
09:25 1021 30.15 851 25.13 23.4 74 34 6.7 44.1
09:30 1021 30.15 851 25.13 23.7 74.7 33 6.8 44.2
09:35 1021 30.15 850 25.1 23.2 73.8 38 8.1 46.6
09:40 1021 30.15 850 25.1 23.4 74.1 34 6.7 44.1
09:45 1021 30.15 850 25.1 23.1 73.6 31 5.4 41.7
09:50 1021 30.15 850 25.1 23.4 74.1 32 5.9 42.6
09:55 1021 30.15 850 25.1 24.5 76 30 5.9 42.6
10:00 1021 30.15 850 25.1 24.7 76.5 31 6.6 43.8
10:05 1021 30.15 850 25.1 24.1 75.3 32 6.6 43.9
10:10 1021 30.15 850 25.1 24.7 76.5 31 6.5 43.6
10:15 1021 30.15 850 25.1 25.6 78 28 6.1 42.9
10:20 1021 30.15 850 25.1 25.3 77.5 29 6.4 43.5
10:25 1021 30.15 850 25.1 25.7 78.2 29 6.5 43.7
10:30 1021 30.15 850 25.1 26 78.9 28 6.2 43.2
10:35 1021 30.15 850 25.1 26.1 79 27 6 42.8
10:40 1021 30.15 850 25.1 26.1 79.1 26 5.4 41.7
10:45 1021 30.15 850 25.1 26.7 80 26 6 42.7
10:50 1021 30.15 850 25.1 27 80.5 27 6.8 44.3
10:55 1021 30.15 850 25.1 27.5 81.4 27 6.9 44.5
11:00 1021 30.15 850 25.1 26.8 80.2 30 8.2 46.8
11:05 1021 30.15 850 25.1 25.6 78 32 7.7 45.9
11:10 1021 30.15 850 25.1 25.8 78.5 32 8 46.4
11:15 1021 30.15 850 25.1 26.1 79 32 8.5 47.2
11:20 1021 30.15 850 25.1 26.4 79.5 31 8.1 46.6
11:25 1021 30.15 850 25.1 26.1 79 32 8.2 46.7
11:30 1021 30.15 851 25.13 25.7 78.2 32 7.9 46.2
11:35 1021 30.15 851 25.13 25.5 77.8 33 8.2 46.7
11:40 1021 30.15 851 25.13 24.9 76.8 32 7.3 45.1
11:45 1021 30.15 851 25.13 24.8 76.7 30 6.5 43.6
11:50 1022 30.18 851 25.13 25.1 77.1 30 6.4 43.5
11:55 1022 30.18 851 25.13 25.3 77.5 30 6.5 43.7
12:00 1022 30.18 851 25.13 25 76.9 30 6.3 43.3
12:05 1022 30.18 851 25.13 24.4 76 32 6.9 44.4
12:10 1021 30.15 851 25.13 24.8 76.6 30 6.2 43.2
12:15 1021 30.15 851 25.13 25.7 78.2 29 6.5 43.6
12:20 1021 30.15 851 25.13 25.9 78.6 29 6.9 44.4
12:25 1021 30.15 850 25.1 25.5 77.9 29 6.2 43.1
12:30 1021 30.15 850 25.1 25.4 77.7 29 6.1 43
12:35 1021 30.15 850 25.1 26 78.8 28 6.3 43.4
12:40 1021 30.15 850 25.1 26.3 79.4 27 6.2 43.2
12:45 1021 30.15 850 25.1 26.4 79.6 28 6.5 43.7
12:50 1021 30.15 850 25.1 26.6 79.8 28 7 44.5
12:55 1021 30.15 850 25.1 26.9 80.5 28 7.3 45.2
13:00 1021 30.15 850 25.1 26.7 80 27 6.2 43.2
13:05 1021 30.15 850 25.1 26.9 80.5 29 7.8 46.1
13:10 1021 30.15 850 25.1 27.1 80.7 28 7.4 45.3
13:15 1020 30.12 850 25.1 27 80.5 29 7.8 46
13:20 1020 30.12 850 25.1 26.4 79.4 30 7.5 45.4
13:25 1020 30.12 850 25.1 27 80.5 27 6.7 44.1
13:30 1020 30.12 850 25.1 28.6 83.4 25 7.2 45
13:35 1020 30.12 850 25.1 28.5 83.3 25 7.1 44.8
13:40 1020 30.12 849 25.07 28.6 83.5 25 6.9 44.4
13:45 1020 30.12 849 25.07 29.4 84.8 24 7 44.7
13:50 1020 30.12 849 25.07 30.6 87.1 21 6.1 43
13:55 1020 30.12 849 25.07 30.8 87.4 23 7.5 45.4
14:00 1020 30.12 849 25.07 30.3 86.6 22 6.9 44.4
14:05 1020 30.12 849 25.07 29.9 85.8 22 6.3 43.4
14:10 1020 30.12 849 25.07 30 86 22 6.1 43
14:15 1020 30.12 849 25.07 29.4 84.9 23 6.6 43.8
14:20 1020 30.12 849 25.07 29.6 85.3 20 4.9 40.8
14:25 1020 30.12 849 25.07 29.9 85.9 20 4.6 40.3
14:30 1020 30.12 849 25.07 30.3 86.5 19 4.6 40.2
14:35 1020 30.12 849 25.07 30.4 86.6 19 4.6 40.2
14:40 1020 30.12 849 25.07 30.3 86.6 19 4.4 39.9
14:45 1020 30.12 849 25.07 30.3 86.5 19 4.2 39.6
14:50 1019 30.09 849 25.07 30.7 87.2 19 4.4 39.9
14:55 1019 30.09 849 25.07 29.8 85.7 18 3.2 37.8
15:00 1019 30.09 849 25.07 29.7 85.5 19 3.9 39
15:05 1019 30.09 849 25.07 29.9 85.8 18 3 37.4
15:10 1019 30.09 849 25.07 30.7 87.3 15 1.7 35
15:15 1019 30.09 849 25.07 31.7 89 15 2.5 36.5
15:20 1019 30.09 848 25.04 31.7 89.1 15 2.4 36.3
15:25 1019 30.09 848 25.04 31.7 89 15 1.8 35.3
15:30 1019 30.09 848 25.04 31.9 89.4 16 3 37.3
15:35 1019 30.09 848 25.04 31.6 88.9 18 4.6 40.3
15:40 1019 30.09 848 25.04 31 87.8 18 4.5 40.2
15:45 1019 30.09 848 25.04 31 87.7 18 4.6 40.3
15:50 1019 30.09 848 25.04 30.8 87.5 18 4.2 39.6
15:55 1019 30.09 848 25.04 31 87.8 18 4.5 40
16:00 1019 30.09 848 25.04 30.8 87.4 17 3 37.4
16:05 1019 30.09 848 25.04 30.8 87.4 15 1.9 35.4
16:10 1019 30.09 848 25.04 31.1 87.9 15 2.2 35.9
16:15 1019 30.09 848 25.04 31.3 88.3 15 2.3 36.2
16:20 1019 30.09 848 25.04 32.2 89.9 15 2.9 37.3
16:25 1018 30.06 848 25.04 32.5 90.5 15 2.7 36.9
16:30 1018 30.06 848 25.04 32.8 91 14 1.9 35.4
16:35 1018 30.06 848 25.04 33.2 91.7 14 2.5 36.4
16:40 1018 30.06 847 25.01 33.4 92.1 15 3.4 38.2
16:45 1018 30.06 847 25.01 32.5 90.5 14 2.4 36.4
16:50 1018 30.06 847 25.01 32.2 89.9 14 2.1 35.8
16:55 1018 30.06 847 25.01 32.7 90.9 14 2.2 35.9
17:00 1018 30.06 847 25.01 32.2 90 15 2.5 36.5
17:05 1018 30.06 847 25.01 31.7 89.1 15 2.7 36.9
17:10 1018 30.06 847 25.01 31.6 88.9 17 4.3 39.8
17:15 1018 30.06 847 25.01 31.8 89.3 14 1.7 35.1
17:20 1018 30.06 847 25.01 31.8 89.2 15 2.7 36.9
17:25 1018 30.06 847 25.01 31.4 88.5 17 3.8 38.9
17:30 1018 30.06 847 25.01 31.7 89.1 14 1.6 35
17:35 1018 30.06 847 25.01 31.6 89 14 1.6 34.8
17:40 1018 30.06 847 25.01 31.9 89.4 14 1.3 34.3
17:45 1018 30.06 847 25.01 32.5 90.5 14 2.1 35.7
17:50 1018 30.06 847 25.01 32.5 90.5 15 2.9 37.2
17:55 1018 30.06 847 25.01 32.2 90 14 1.4 34.5
18:00 1018 30.06 847 25.01 31.5 88.7 14 1.3 34.3
18:05 1018 30.06 847 25.01 31.5 88.6 14 1.1 34
18:10 1018 30.06 847 25.01 31.5 88.7 15 2 35.5
18:15 1018 30.06 847 25.01 31.5 88.6 15 2.1 35.7
18:20 1018 30.06 847 25.01 31.7 89.1 16 2.8 37
18:25 1017 30.03 847 25.01 31.5 88.6 14 1.5 34.7
18:30 1017 30.03 847 25.01 31.5 88.6 15 2.4 36.3
18:35 1017 30.03 847 25.01 31.3 88.4 14 1.3 34.3
18:40 1017 30.03 847 25.01 31.2 88.1 14 1.2 34.2
18:45 1017 30.03 846 24.98 31.2 88.2 14 0.9 33.6
18:50 1017 30.03 846 24.98 31.3 88.4 14 1.3 34.4
18:55 1017 30.03 846 24.98 31.5 88.7 14 1 33.8
19:00 1017 30.03 846 24.98 31.7 89 15 1.8 35.3
19:05 1017 30.03 846 24.98 31.3 88.3 14 1 33.9
19:10 1017 30.03 846 24.98 30.9 87.7 18 4.3 39.8
19:15 1017 30.03 846 24.98 30.8 87.4 17 3.3 38
19:20 1017 30.03 846 24.98 30.7 87.3 16 2.5 36.5
19:25 1017 30.03 846 24.98 30.8 87.4 17 2.9 37.2
19:30 1017 30.03 846 24.98 30.6 87 18 3.8 38.8
19:35 1017 30.03 846 24.98 30.4 86.7 16 2 35.6
19:40 1017 30.03 846 24.98 30.2 86.4 19 4.5 40.1
19:45 1017 30.03 846 24.98 29.8 85.7 26 8.7 47.7
19:50 1017 30.03 846 24.98 29.7 85.5 28 9.3 48.8
19:55 1017 30.03 846 24.98 29.4 85 26 8 46.4
20:00 1017 30.03 846 24.98 28.8 83.8 22 5.4 41.7
20:05 1017 30.03 847 25.01 27.4 81.3 25 5.7 42.3
20:10 1017 30.03 847 25.01 25.8 78.5 28 6.4 43.6
20:15 1018 30.06 847 25.01 24.9 76.9 29 6.1 43
20:20 1018 30.06 847 25.01 24.9 76.8 27 4.9 40.8
20:25 1018 30.06 847 25.01 25.2 77.4 27 5.1 41.2
20:30 1017 30.03 847 25.01 25.2 77.3 26 4.7 40.5
20:35 1017 30.03 847 25.01 25.5 77.8 26 4.9 40.8
20:40 1018 30.06 847 25.01 25.3 77.5 27 5.1 41.1
20:45 1018 30.06 847 25.01 25 77.1 28 5.4 41.7
20:50 1018 30.06 847 25.01 24.7 76.5 29 5.6 42.1
20:55 1017 30.03 847 25.01 24.4 76 30 5.8 42.4
21:00 1017 30.03 847 25.01 24.3 75.7 29 5.5 42
21:05 1017 30.03 847 25.01 24.3 75.7 29 5.3 41.6
21:10 1017 30.03 847 25.01 24.4 75.9 29 5.3 41.5
21:15 1017 30.03 847 25.01 24.5 76 28 5 41.1
21:20 1017 30.03 847 25.01 24.6 76.3 27 4.9 40.8
21:25 1018 30.06 847 25.01 24.7 76.5 27 4.8 40.6
21:30 1018 30.06 847 25.01 24.9 76.8 26 4.5 40.2
21:35 1018 30.06 847 25.01 25 77.1 27 5 41
21:40 1018 30.06 847 25.01 25 76.9 26 4.6 40.3
21:45 1018 30.06 847 25.01 24.9 76.7 27 4.7 40.5
21:50 1018 30.06 847 25.01 24.5 76.2 26 4.2 39.6
21:55 1018 30.06 847 25.01 24.4 76 27 4.2 39.6
22:00 1018 30.06 847 25.01 24.4 75.9 27 4.3 39.7
22:05 1018 30.06 847 25.01 24.3 75.7 27 4.1 39.4
22:10 1018 30.06 847 25.01 24.3 75.8 26 4 39.3
22:15 1018 30.06 847 25.01 24.1 75.4 28 4.8 40.6
22:20 1018 30.06 847 25.01 23.5 74.3 30 5.1 41.2
22:25 1018 30.06 847 25.01 23.2 73.7 31 5.1 41.3
22:30 1018 30.06 847 25.01 22.9 73.3 31 5.3 41.5
22:35 1018 30.06 847 25.01 22.7 72.8 32 5.5 41.9
22:40 1018 30.06 847 25.01 22.3 72.2 33 5.5 41.9
22:45 1018 30.06 847 25.01 22.2 71.9 33 5.5 41.9
22:50 1018 30.06 847 25.01 22 71.6 34 5.5 41.8
22:55 1018 30.06 847 25.01 21.8 71.3 34 5.4 41.7
23:00 1018 30.06 847 25.01 21.8 71.2 34 5.5 41.8
23:05 1018 30.06 847 25.01 21.7 71 35 5.7 42.2
23:10 1018 30.06 847 25.01 21.5 70.7 35 5.7 42.3
23:15 1018 30.06 847 25.01 21.4 70.6 36 5.8 42.4
23:20 1018 30.06 847 25.01 21.4 70.5 36 5.7 42.3
23:25 1018 30.06 847 25.01 21.3 70.3 36 5.8 42.4
23:30 1018 30.06 847 25.01 21.2 70.2 36 5.7 42.2
23:35 1018 30.06 847 25.01 21.3 70.3 35 5.5 41.8
23:40 1018 30.06 847 25.01 21.4 70.5 35 5.6 42
23:45 1018 30.06 847 25.01 21.2 70.2 36 5.7 42.2
23:50 1018 30.06 847 25.01 21.3 70.3 36 5.6 42.2
23:55 1018 30.06 847 25.01 21.2 70.2 36 5.6 42.1
24:00 1018 30.06 847 25.01 21.2 70.1 35 5.5 41.9